Terminal Aerodrome Forecast
Issued by NWS Grand Forks, ND

Home | Current Version | Previous Version | Text Only | Print | Product List | Glossary Off
Versions: 1 2 3 4 5 6 7 8 9 10 11 12 13 14 15 16 17 18

413
FTUS43 KFGF 280520
TAFFAR
TAF
KFAR 280520Z 2806/2906 VRB03KT P6SM SCT025 BKN080
     FM280900 VRB03KT P6SM BKN025
     FM281200 VRB03KT P6SM OVC015
     FM281400 02006KT P6SM OVC020
     FM281700 36009KT P6SM VCSH BKN035
     FM290400 29004KT P6SM VCSH BKN120
     FM290500 30004KT P6SM BKN130=

USA.gov is the U.S. government's official web portal to all federal, state and local government web resources and services.